sensor_id;sensor_type;location;lat;lon;timestamp;temperature;humidity
5415;DHT22;2730;51.512;7.504;2023-02-22T00:00:29;7.70;99.90
5415;DHT22;2730;51.512;7.504;2023-02-22T00:03:09;7.80;99.90
5415;DHT22;2730;51.512;7.504;2023-02-22T00:05:36;7.80;99.90
5415;DHT22;2730;51.512;7.504;2023-02-22T00:08:05;7.80;99.90
5415;DHT22;2730;51.512;7.504;2023-02-22T00:10:35;7.70;99.90
5415;DHT22;2730;51.512;7.504;2023-02-22T00:13:05;7.60;99.90
5415;DHT22;2730;51.512;7.504;2023-02-22T00:15:33;7.60;99.90
5415;DHT22;2730;51.512;7.504;2023-02-22T00:18:01;7.50;99.90
5415;DHT22;2730;51.512;7.504;2023-02-22T00:20:28;7.50;99.90
5415;DHT22;2730;51.512;7.504;2023-02-22T00:22:55;7.50;99.90
5415;DHT22;2730;51.512;7.504;2023-02-22T00:25:23;7.50;99.90
5415;DHT22;2730;51.512;7.504;2023-02-22T00:27:51;7.60;99.90
5415;DHT22;2730;51.512;7.504;2023-02-22T00:30:20;7.60;99.90
5415;DHT22;2730;51.512;7.504;2023-02-22T00:32:48;7.50;99.90
5415;DHT22;2730;51.512;7.504;2023-02-22T00:35:17;7.60;99.90
5415;DHT22;2730;51.512;7.504;2023-02-22T00:37:46;7.60;99.90
5415;DHT22;2730;51.512;7.504;2023-02-22T00:40:15;7.70;99.90
5415;DHT22;2730;51.512;7.504;2023-02-22T00:42:42;7.60;99.90
5415;DHT22;2730;51.512;7.504;2023-02-22T00:45:12;7.50;99.90
5415;DHT22;2730;51.512;7.504;2023-02-22T00:47:40;7.50;99.90
5415;DHT22;2730;51.512;7.504;2023-02-22T00:50:08;7.40;99.90
5415;DHT22;2730;51.512;7.504;2023-02-22T00:52:35;7.30;99.90
5415;DHT22;2730;51.512;7.504;2023-02-22T00:55:02;7.30;99.90
5415;DHT22;2730;51.512;7.504;2023-02-22T00:57:30;7.30;99.90
5415;DHT22;2730;51.512;7.504;2023-02-22T00:59:59;7.20;99.90
5415;DHT22;2730;51.512;7.504;2023-02-22T01:02:37;7.10;99.90
5415;DHT22;2730;51.512;7.504;2023-02-22T01:05:05;7.20;99.90
5415;DHT22;2730;51.512;7.504;2023-02-22T01:07:32;7.20;99.90
5415;DHT22;2730;51.512;7.504;2023-02-22T01:09:59;7.30;99.90
5415;DHT22;2730;51.512;7.504;2023-02-22T01:12:26;7.30;99.90
5415;DHT22;2730;51.512;7.504;2023-02-22T01:14:52;7.30;99.90
5415;DHT22;2730;51.512;7.504;2023-02-22T01:17:21;7.30;99.90
5415;DHT22;2730;51.512;7.504;2023-02-22T01:19:49;7.20;99.90
5415;DHT22;2730;51.512;7.504;2023-02-22T01:22:16;7.30;99.90
5415;DHT22;2730;51.512;7.504;2023-02-22T01:24:43;7.30;99.90
5415;DHT22;2730;51.512;7.504;2023-02-22T01:27:10;7.20;99.90
5415;DHT22;2730;51.512;7.504;2023-02-22T01:29:37;7.20;99.90
5415;DHT22;2730;51.512;7.504;2023-02-22T01:32:04;7.30;99.90
5415;DHT22;2730;51.512;7.504;2023-02-22T01:34:31;7.30;99.90
5415;DHT22;2730;51.512;7.504;2023-02-22T01:37:00;7.20;99.90
5415;DHT22;2730;51.512;7.504;2023-02-22T01:39:26;7.10;99.90
5415;DHT22;2730;51.512;7.504;2023-02-22T01:41:53;7.10;99.90
5415;DHT22;2730;51.512;7.504;2023-02-22T01:44:26;7.10;99.90
5415;DHT22;2730;51.512;7.504;2023-02-22T01:46:54;7.00;99.90
5415;DHT22;2730;51.512;7.504;2023-02-22T01:49:21;6.90;99.90
5415;DHT22;2730;51.512;7.504;2023-02-22T01:51:50;6.80;99.90
5415;DHT22;2730;51.512;7.504;2023-02-22T01:54:24;6.80;99.90
5415;DHT22;2730;51.512;7.504;2023-02-22T01:57:03;6.80;99.90
5415;DHT22;2730;51.512;7.504;2023-02-22T01:59:36;6.90;99.90
5415;DHT22;2730;51.512;7.504;2023-02-22T02:02:03;6.90;99.90
5415;DHT22;2730;51.512;7.504;2023-02-22T02:04:31;6.90;99.90
5415;DHT22;2730;51.512;7.504;2023-02-22T02:07:04;6.90;99.90
5415;DHT22;2730;51.512;7.504;2023-02-22T02:09:38;6.90;99.90
5415;DHT22;2730;51.512;7.504;2023-02-22T02:12:08;6.80;99.90
5415;DHT22;2730;51.512;7.504;2023-02-22T02:14:35;6.70;99.90
5415;DHT22;2730;51.512;7.504;2023-02-22T02:17:06;6.70;99.90
5415;DHT22;2730;51.512;7.504;2023-02-22T02:19:50;6.60;99.90
5415;DHT22;2730;51.512;7.504;2023-02-22T02:22:33;6.70;99.90
5415;DHT22;2730;51.512;7.504;2023-02-22T02:25:36;6.60;99.90
5415;DHT22;2730;51.512;7.504;2023-02-22T02:34:17;6.50;99.90
5415;DHT22;2730;51.512;7.504;2023-02-22T02:36:51;6.50;99.90
5415;DHT22;2730;51.512;7.504;2023-02-22T02:39:25;6.40;99.90
5415;DHT22;2730;51.512;7.504;2023-02-22T02:41:53;6.40;99.90
5415;DHT22;2730;51.512;7.504;2023-02-22T02:44:25;6.30;99.90
5415;DHT22;2730;51.512;7.504;2023-02-22T02:46:57;6.30;99.90
5415;DHT22;2730;51.512;7.504;2023-02-22T02:49:30;6.30;99.90
5415;DHT22;2730;51.512;7.504;2023-02-22T02:52:01;6.30;99.90
5415;DHT22;2730;51.512;7.504;2023-02-22T02:54:29;6.20;99.90
5415;DHT22;2730;51.512;7.504;2023-02-22T02:56:57;6.20;99.90
5415;DHT22;2730;51.512;7.504;2023-02-22T02:59:25;6.20;99.90
5415;DHT22;2730;51.512;7.504;2023-02-22T03:02:09;6.10;99.90
5415;DHT22;2730;51.512;7.504;2023-02-22T03:04:51;6.00;99.90
5415;DHT22;2730;51.512;7.504;2023-02-22T03:07:32;5.90;99.90
5415;DHT22;2730;51.512;7.504;2023-02-22T03:10:23;5.90;99.90
5415;DHT22;2730;51.512;7.504;2023-02-22T03:12:59;5.80;99.90
5415;DHT22;2730;51.512;7.504;2023-02-22T03:15:34;5.70;99.90
5415;DHT22;2730;51.512;7.504;2023-02-22T03:18:07;5.60;99.90
5415;DHT22;2730;51.512;7.504;2023-02-22T03:20:42;5.60;99.90
5415;DHT22;2730;51.512;7.504;2023-02-22T03:23:17;5.60;99.90
5415;DHT22;2730;51.512;7.504;2023-02-22T03:25:51;5.60;99.90
5415;DHT22;2730;51.512;7.504;2023-02-22T03:28:22;5.60;99.90
5415;DHT22;2730;51.512;7.504;2023-02-22T03:30:53;5.60;99.90
5415;DHT22;2730;51.512;7.504;2023-02-22T03:33:26;5.60;99.90
5415;DHT22;2730;51.512;7.504;2023-02-22T03:36:04;5.60;99.90
5415;DHT22;2730;51.512;7.504;2023-02-22T03:38:34;5.60;99.90
5415;DHT22;2730;51.512;7.504;2023-02-22T03:41:04;5.60;99.90
5415;DHT22;2730;51.512;7.504;2023-02-22T03:43:36;5.60;99.90
5415;DHT22;2730;51.512;7.504;2023-02-22T03:46:05;5.60;99.90
5415;DHT22;2730;51.512;7.504;2023-02-22T03:48:37;5.60;99.90
5415;DHT22;2730;51.512;7.504;2023-02-22T03:51:06;5.50;99.90
5415;DHT22;2730;51.512;7.504;2023-02-22T03:53:33;5.50;99.90
5415;DHT22;2730;51.512;7.504;2023-02-22T03:56:03;5.50;99.90
5415;DHT22;2730;51.512;7.504;2023-02-22T03:58:33;5.50;99.90
5415;DHT22;2730;51.512;7.504;2023-02-22T04:01:01;5.50;99.90
5415;DHT22;2730;51.512;7.504;2023-02-22T04:03:28;5.50;99.90
5415;DHT22;2730;51.512;7.504;2023-02-22T04:05:54;5.50;99.90
5415;DHT22;2730;51.512;7.504;2023-02-22T04:08:22;5.40;99.90
5415;DHT22;2730;51.512;7.504;2023-02-22T04:10:50;5.30;99.90
5415;DHT22;2730;51.512;7.504;2023-02-22T04:13:17;5.30;99.90
5415;DHT22;2730;51.512;7.504;2023-02-22T04:15:43;5.20;99.90
5415;DHT22;2730;51.512;7.504;2023-02-22T04:18:10;5.20;99.90
5415;DHT22;2730;51.512;7.504;2023-02-22T04:20:38;5.20;99.90
5415;DHT22;2730;51.512;7.504;2023-02-22T04:23:05;5.20;99.90
5415;DHT22;2730;51.512;7.504;2023-02-22T04:25:33;5.20;99.90
5415;DHT22;2730;51.512;7.504;2023-02-22T04:28:00;5.20;99.90
5415;DHT22;2730;51.512;7.504;2023-02-22T04:30:27;5.10;99.90
5415;DHT22;2730;51.512;7.504;2023-02-22T04:32:54;5.10;99.90
5415;DHT22;2730;51.512;7.504;2023-02-22T04:35:21;5.00;99.90
5415;DHT22;2730;51.512;7.504;2023-02-22T04:37:48;5.00;99.90
5415;DHT22;2730;51.512;7.504;2023-02-22T04:40:16;5.00;99.90
5415;DHT22;2730;51.512;7.504;2023-02-22T04:42:44;5.00;99.90
5415;DHT22;2730;51.512;7.504;2023-02-22T04:45:12;5.00;99.90
5415;DHT22;2730;51.512;7.504;2023-02-22T04:47:39;4.90;99.90
5415;DHT22;2730;51.512;7.504;2023-02-22T04:50:09;4.90;99.90
5415;DHT22;2730;51.512;7.504;2023-02-22T04:52:36;5.00;99.90
5415;DHT22;2730;51.512;7.504;2023-02-22T04:55:04;4.90;99.90
5415;DHT22;2730;51.512;7.504;2023-02-22T04:57:31;4.80;99.90
5415;DHT22;2730;51.512;7.504;2023-02-22T04:59:59;4.80;99.90
5415;DHT22;2730;51.512;7.504;2023-02-22T05:02:26;4.70;99.90
5415;DHT22;2730;51.512;7.504;2023-02-22T05:04:52;4.70;99.90
5415;DHT22;2730;51.512;7.504;2023-02-22T05:07:19;4.60;99.90
5415;DHT22;2730;51.512;7.504;2023-02-22T05:09:46;4.60;99.90
5415;DHT22;2730;51.512;7.504;2023-02-22T05:12:13;4.70;99.90
5415;DHT22;2730;51.512;7.504;2023-02-22T05:14:39;4.60;99.90
5415;DHT22;2730;51.512;7.504;2023-02-22T05:17:08;4.50;99.90
5415;DHT22;2730;51.512;7.504;2023-02-22T05:19:35;4.50;99.90
5415;DHT22;2730;51.512;7.504;2023-02-22T05:22:02;4.50;99.90
5415;DHT22;2730;51.512;7.504;2023-02-22T05:24:30;4.40;99.90
5415;DHT22;2730;51.512;7.504;2023-02-22T05:26:56;4.50;99.90
5415;DHT22;2730;51.512;7.504;2023-02-22T05:29:23;4.50;99.90
5415;DHT22;2730;51.512;7.504;2023-02-22T05:31:50;4.50;99.90
5415;DHT22;2730;51.512;7.504;2023-02-22T05:34:18;4.50;99.90
5415;DHT22;2730;51.512;7.504;2023-02-22T05:36:45;4.50;99.90
5415;DHT22;2730;51.512;7.504;2023-02-22T05:39:12;4.60;99.90
5415;DHT22;2730;51.512;7.504;2023-02-22T05:41:38;4.50;99.90
5415;DHT22;2730;51.512;7.504;2023-02-22T05:44:05;4.60;99.90
5415;DHT22;2730;51.512;7.504;2023-02-22T05:46:32;4.60;99.90
5415;DHT22;2730;51.512;7.504;2023-02-22T05:48:59;4.60;99.90
5415;DHT22;2730;51.512;7.504;2023-02-22T05:51:27;4.60;99.90
5415;DHT22;2730;51.512;7.504;2023-02-22T05:53:53;4.60;99.90
5415;DHT22;2730;51.512;7.504;2023-02-22T05:56:22;4.70;99.90
5415;DHT22;2730;51.512;7.504;2023-02-22T05:58:49;4.70;99.90
5415;DHT22;2730;51.512;7.504;2023-02-22T06:01:16;4.70;99.90
5415;DHT22;2730;51.512;7.504;2023-02-22T06:03:45;4.70;99.90
5415;DHT22;2730;51.512;7.504;2023-02-22T06:06:12;4.70;99.90
5415;DHT22;2730;51.512;7.504;2023-02-22T06:08:40;4.60;99.90
5415;DHT22;2730;51.512;7.504;2023-02-22T06:11:07;4.60;99.90
5415;DHT22;2730;51.512;7.504;2023-02-22T06:13:34;4.50;99.90
5415;DHT22;2730;51.512;7.504;2023-02-22T06:16:01;4.60;99.90
5415;DHT22;2730;51.512;7.504;2023-02-22T06:18:28;4.60;99.90
5415;DHT22;2730;51.512;7.504;2023-02-22T06:20:55;4.50;99.90
5415;DHT22;2730;51.512;7.504;2023-02-22T06:23:22;4.50;99.90
5415;DHT22;2730;51.512;7.504;2023-02-22T06:25:50;4.40;99.90
5415;DHT22;2730;51.512;7.504;2023-02-22T06:28:18;4.40;99.90
5415;DHT22;2730;51.512;7.504;2023-02-22T06:30:44;4.40;99.90
5415;DHT22;2730;51.512;7.504;2023-02-22T06:33:11;4.30;99.90
5415;DHT22;2730;51.512;7.504;2023-02-22T06:35:38;4.30;99.90
5415;DHT22;2730;51.512;7.504;2023-02-22T06:38:05;4.30;99.90
5415;DHT22;2730;51.512;7.504;2023-02-22T06:40:31;4.30;99.90
5415;DHT22;2730;51.512;7.504;2023-02-22T06:42:59;4.30;99.90
5415;DHT22;2730;51.512;7.504;2023-02-22T06:45:26;4.30;99.90
5415;DHT22;2730;51.512;7.504;2023-02-22T06:47:53;4.20;99.90
5415;DHT22;2730;51.512;7.504;2023-02-22T06:50:22;4.10;99.90
5415;DHT22;2730;51.512;7.504;2023-02-22T06:52:49;4.10;99.90
5415;DHT22;2730;51.512;7.504;2023-02-22T06:55:18;4.20;99.90
5415;DHT22;2730;51.512;7.504;2023-02-22T06:57:46;4.20;99.90
5415;DHT22;2730;51.512;7.504;2023-02-22T07:00:16;4.30;99.90
5415;DHT22;2730;51.512;7.504;2023-02-22T07:02:44;4.20;99.90
5415;DHT22;2730;51.512;7.504;2023-02-22T07:05:11;4.20;99.90
5415;DHT22;2730;51.512;7.504;2023-02-22T07:07:38;4.20;99.90
5415;DHT22;2730;51.512;7.504;2023-02-22T07:10:06;4.20;99.90
5415;DHT22;2730;51.512;7.504;2023-02-22T07:12:33;4.30;99.90
5415;DHT22;2730;51.512;7.504;2023-02-22T07:15:00;4.30;99.90
5415;DHT22;2730;51.512;7.504;2023-02-22T07:17:28;4.30;99.90
5415;DHT22;2730;51.512;7.504;2023-02-22T07:19:55;4.40;99.90
5415;DHT22;2730;51.512;7.504;2023-02-22T07:22:22;4.40;99.90
5415;DHT22;2730;51.512;7.504;2023-02-22T07:24:48;4.40;99.90
5415;DHT22;2730;51.512;7.504;2023-02-22T07:27:15;4.50;99.90
5415;DHT22;2730;51.512;7.504;2023-02-22T07:29:42;4.50;99.90
5415;DHT22;2730;51.512;7.504;2023-02-22T07:32:11;4.60;99.90
5415;DHT22;2730;51.512;7.504;2023-02-22T07:34:40;4.60;99.90
5415;DHT22;2730;51.512;7.504;2023-02-22T07:37:07;4.60;99.90
5415;DHT22;2730;51.512;7.504;2023-02-22T07:39:34;4.70;99.90
5415;DHT22;2730;51.512;7.504;2023-02-22T07:42:02;4.70;99.90
5415;DHT22;2730;51.512;7.504;2023-02-22T07:44:29;4.70;99.90
5415;DHT22;2730;51.512;7.504;2023-02-22T07:46:56;4.80;99.90
5415;DHT22;2730;51.512;7.504;2023-02-22T07:49:23;4.80;99.90
5415;DHT22;2730;51.512;7.504;2023-02-22T07:51:51;4.90;99.90
5415;DHT22;2730;51.512;7.504;2023-02-22T07:54:18;5.00;99.90
5415;DHT22;2730;51.512;7.504;2023-02-22T07:56:46;5.00;99.90
5415;DHT22;2730;51.512;7.504;2023-02-22T07:59:13;5.10;99.90
5415;DHT22;2730;51.512;7.504;2023-02-22T08:01:40;5.10;99.90
5415;DHT22;2730;51.512;7.504;2023-02-22T08:04:07;5.20;99.90
5415;DHT22;2730;51.512;7.504;2023-02-22T08:06:34;5.40;99.90
5415;DHT22;2730;51.512;7.504;2023-02-22T08:09:02;5.40;99.90
5415;DHT22;2730;51.512;7.504;2023-02-22T08:11:28;5.60;99.90
5415;DHT22;2730;51.512;7.504;2023-02-22T08:13:55;5.50;99.90
5415;DHT22;2730;51.512;7.504;2023-02-22T08:16:22;5.70;99.90
5415;DHT22;2730;51.512;7.504;2023-02-22T08:18:49;5.70;99.90
5415;DHT22;2730;51.512;7.504;2023-02-22T08:21:16;5.80;99.90
5415;DHT22;2730;51.512;7.504;2023-02-22T08:23:43;5.90;99.90
5415;DHT22;2730;51.512;7.504;2023-02-22T08:26:11;6.00;99.90
5415;DHT22;2730;51.512;7.504;2023-02-22T08:28:43;6.10;99.90
5415;DHT22;2730;51.512;7.504;2023-02-22T08:31:09;6.20;99.90
5415;DHT22;2730;51.512;7.504;2023-02-22T08:33:36;6.40;99.90
5415;DHT22;2730;51.512;7.504;2023-02-22T08:36:03;6.50;99.90
5415;DHT22;2730;51.512;7.504;2023-02-22T08:38:31;6.70;99.90
5415;DHT22;2730;51.512;7.504;2023-02-22T08:40:58;6.70;99.90
5415;DHT22;2730;51.512;7.504;2023-02-22T08:43:26;6.90;99.90
5415;DHT22;2730;51.512;7.504;2023-02-22T08:45:54;7.00;99.90
5415;DHT22;2730;51.512;7.504;2023-02-22T08:48:20;7.10;99.90
5415;DHT22;2730;51.512;7.504;2023-02-22T08:50:47;7.30;99.90
5415;DHT22;2730;51.512;7.504;2023-02-22T08:53:15;7.50;99.90
5415;DHT22;2730;51.512;7.504;2023-02-22T08:55:42;7.70;99.90
5415;DHT22;2730;51.512;7.504;2023-02-22T08:58:09;7.90;99.90
5415;DHT22;2730;51.512;7.504;2023-02-22T09:00:39;8.10;99.90
5415;DHT22;2730;51.512;7.504;2023-02-22T09:03:07;8.40;99.90
5415;DHT22;2730;51.512;7.504;2023-02-22T09:05:34;8.80;99.90
5415;DHT22;2730;51.512;7.504;2023-02-22T09:08:02;9.40;99.90
5415;DHT22;2730;51.512;7.504;2023-02-22T09:10:32;10.20;99.90
5415;DHT22;2730;51.512;7.504;2023-02-22T09:12:59;10.90;99.90
5415;DHT22;2730;51.512;7.504;2023-02-22T09:15:27;11.60;99.90
5415;DHT22;2730;51.512;7.504;2023-02-22T09:17:55;12.00;99.90
5415;DHT22;2730;51.512;7.504;2023-02-22T09:20:23;12.40;99.90
5415;DHT22;2730;51.512;7.504;2023-02-22T09:22:50;12.80;99.90
5415;DHT22;2730;51.512;7.504;2023-02-22T09:25:18;13.00;99.90
5415;DHT22;2730;51.512;7.504;2023-02-22T09:27:46;13.20;34.40
5415;DHT22;2730;51.512;7.504;2023-02-22T09:30:19;13.50;17.00
5415;DHT22;2730;51.512;7.504;2023-02-22T09:32:49;13.70;1.00
5415;DHT22;2730;51.512;7.504;2023-02-22T09:35:17;13.70;1.00
5415;DHT22;2730;51.512;7.504;2023-02-22T09:37:44;13.60;1.00
5415;DHT22;2730;51.512;7.504;2023-02-22T09:40:15;13.60;1.00
5415;DHT22;2730;51.512;7.504;2023-02-22T09:43:01;13.60;8.20
5415;DHT22;2730;51.512;7.504;2023-02-22T09:45:33;13.70;1.00
5415;DHT22;2730;51.512;7.504;2023-02-22T09:48:02;13.80;1.00
5415;DHT22;2730;51.512;7.504;2023-02-22T09:50:36;13.90;1.00
5415;DHT22;2730;51.512;7.504;2023-02-22T09:53:09;14.10;1.00
5415;DHT22;2730;51.512;7.504;2023-02-22T09:55:45;14.40;1.00
5415;DHT22;2730;51.512;7.504;2023-02-22T09:58:20;14.70;1.00
5415;DHT22;2730;51.512;7.504;2023-02-22T10:00:50;14.90;1.00
5415;DHT22;2730;51.512;7.504;2023-02-22T10:03:22;15.00;1.00
5415;DHT22;2730;51.512;7.504;2023-02-22T10:05:56;14.80;1.00
5415;DHT22;2730;51.512;7.504;2023-02-22T10:08:28;15.00;1.00
5415;DHT22;2730;51.512;7.504;2023-02-22T10:11:04;15.20;99.90
5415;DHT22;2730;51.512;7.504;2023-02-22T10:13:41;15.50;99.90
5415;DHT22;2730;51.512;7.504;2023-02-22T10:16:19;15.60;99.90
5415;DHT22;2730;51.512;7.504;2023-02-22T10:19:08;15.90;99.90
5415;DHT22;2730;51.512;7.504;2023-02-22T10:21:58;15.90;99.90
5415;DHT22;2730;51.512;7.504;2023-02-22T10:24:37;15.90;99.90
5415;DHT22;2730;51.512;7.504;2023-02-22T10:27:15;15.80;99.90
5415;DHT22;2730;51.512;7.504;2023-02-22T10:29:45;16.00;99.90
5415;DHT22;2730;51.512;7.504;2023-02-22T10:32:15;16.20;99.90
5415;DHT22;2730;51.512;7.504;2023-02-22T10:34:46;16.40;99.90
5415;DHT22;2730;51.512;7.504;2023-02-22T10:37:23;16.40;99.90
5415;DHT22;2730;51.512;7.504;2023-02-22T10:39:54;16.40;99.90
5415;DHT22;2730;51.512;7.504;2023-02-22T10:42:25;16.50;99.90
5415;DHT22;2730;51.512;7.504;2023-02-22T10:44:52;16.40;99.90
5415;DHT22;2730;51.512;7.504;2023-02-22T10:47:19;16.10;99.90
5415;DHT22;2730;51.512;7.504;2023-02-22T10:49:49;16.00;99.90
5415;DHT22;2730;51.512;7.504;2023-02-22T10:52:24;15.90;99.90
5415;DHT22;2730;51.512;7.504;2023-02-22T10:54:54;15.80;99.90
5415;DHT22;2730;51.512;7.504;2023-02-22T10:57:23;15.70;99.90
5415;DHT22;2730;51.512;7.504;2023-02-22T10:59:51;15.30;26.30
5415;DHT22;2730;51.512;7.504;2023-02-22T11:02:23;15.20;99.90
5415;DHT22;2730;51.512;7.504;2023-02-22T11:04:55;15.20;15.20
5415;DHT22;2730;51.512;7.504;2023-02-22T11:07:26;15.10;99.90
5415;DHT22;2730;51.512;7.504;2023-02-22T11:09:55;15.00;99.90
5415;DHT22;2730;51.512;7.504;2023-02-22T11:12:28;15.10;99.90
5415;DHT22;2730;51.512;7.504;2023-02-22T11:14:56;15.20;99.90
5415;DHT22;2730;51.512;7.504;2023-02-22T11:17:31;15.30;99.90
5415;DHT22;2730;51.512;7.504;2023-02-22T11:19:59;15.30;99.90
5415;DHT22;2730;51.512;7.504;2023-02-22T11:22:30;15.30;99.90
5415;DHT22;2730;51.512;7.504;2023-02-22T11:24:59;15.20;99.90
5415;DHT22;2730;51.512;7.504;2023-02-22T11:27:31;15.00;99.90
5415;DHT22;2730;51.512;7.504;2023-02-22T11:30:14;15.00;99.90
5415;DHT22;2730;51.512;7.504;2023-02-22T11:32:44;15.10;1.00
5415;DHT22;2730;51.512;7.504;2023-02-22T11:35:29;15.30;99.90
5415;DHT22;2730;51.512;7.504;2023-02-22T11:38:17;15.20;99.90
5415;DHT22;2730;51.512;7.504;2023-02-22T11:40:46;15.30;99.90
5415;DHT22;2730;51.512;7.504;2023-02-22T11:43:29;15.50;99.90
5415;DHT22;2730;51.512;7.504;2023-02-22T11:45:59;15.60;99.90
5415;DHT22;2730;51.512;7.504;2023-02-22T11:48:31;15.60;99.90
5415;DHT22;2730;51.512;7.504;2023-02-22T11:51:09;15.60;99.90
5415;DHT22;2730;51.512;7.504;2023-02-22T11:54:04;15.70;99.90
5415;DHT22;2730;51.512;7.504;2023-02-22T11:56:36;15.70;99.90
5415;DHT22;2730;51.512;7.504;2023-02-22T11:59:12;15.50;99.90
5415;DHT22;2730;51.512;7.504;2023-02-22T12:01:47;15.60;99.90
5415;DHT22;2730;51.512;7.504;2023-02-22T12:04:49;15.50;99.90
5415;DHT22;2730;51.512;7.504;2023-02-22T12:07:40;15.50;99.90
5415;DHT22;2730;51.512;7.504;2023-02-22T12:10:21;15.50;99.90
5415;DHT22;2730;51.512;7.504;2023-02-22T12:13:01;15.50;99.90
5415;DHT22;2730;51.512;7.504;2023-02-22T12:15:38;15.60;99.90
5415;DHT22;2730;51.512;7.504;2023-02-22T12:18:12;15.70;99.90
5415;DHT22;2730;51.512;7.504;2023-02-22T12:20:44;15.80;99.90
5415;DHT22;2730;51.512;7.504;2023-02-22T12:23:16;15.90;99.90
5415;DHT22;2730;51.512;7.504;2023-02-22T12:25:53;15.90;99.90
5415;DHT22;2730;51.512;7.504;2023-02-22T12:28:27;15.80;99.90
5415;DHT22;2730;51.512;7.504;2023-02-22T12:31:05;15.70;99.90
5415;DHT22;2730;51.512;7.504;2023-02-22T12:33:45;15.70;99.90
5415;DHT22;2730;51.512;7.504;2023-02-22T12:36:16;15.70;99.90
5415;DHT22;2730;51.512;7.504;2023-02-22T12:38:48;15.70;99.90
5415;DHT22;2730;51.512;7.504;2023-02-22T12:41:24;15.70;99.90
5415;DHT22;2730;51.512;7.504;2023-02-22T12:43:57;15.80;99.90
5415;DHT22;2730;51.512;7.504;2023-02-22T12:46:29;15.80;99.90
5415;DHT22;2730;51.512;7.504;2023-02-22T12:49:01;15.70;99.90
5415;DHT22;2730;51.512;7.504;2023-02-22T12:51:33;15.70;99.90
5415;DHT22;2730;51.512;7.504;2023-02-22T12:54:09;15.80;99.90
5415;DHT22;2730;51.512;7.504;2023-02-22T12:56:42;15.80;99.90
5415;DHT22;2730;51.512;7.504;2023-02-22T12:59:16;15.70;99.90
5415;DHT22;2730;51.512;7.504;2023-02-22T13:01:49;15.70;99.90
5415;DHT22;2730;51.512;7.504;2023-02-22T13:04:18;15.70;99.90
5415;DHT22;2730;51.512;7.504;2023-02-22T13:06:55;15.70;99.90
5415;DHT22;2730;51.512;7.504;2023-02-22T13:09:40;15.80;99.90
5415;DHT22;2730;51.512;7.504;2023-02-22T13:12:14;15.90;99.90
5415;DHT22;2730;51.512;7.504;2023-02-22T13:14:49;15.80;99.90
5415;DHT22;2730;51.512;7.504;2023-02-22T13:17:23;15.80;99.90
5415;DHT22;2730;51.512;7.504;2023-02-22T13:19:58;15.80;99.90
5415;DHT22;2730;51.512;7.504;2023-02-22T13:22:29;15.80;99.90
5415;DHT22;2730;51.512;7.504;2023-02-22T13:25:02;15.80;99.90
5415;DHT22;2730;51.512;7.504;2023-02-22T13:27:37;15.90;99.90
5415;DHT22;2730;51.512;7.504;2023-02-22T13:30:15;15.80;99.90
5415;DHT22;2730;51.512;7.504;2023-02-22T13:32:59;15.80;99.90
5415;DHT22;2730;51.512;7.504;2023-02-22T13:35:48;15.80;99.90
5415;DHT22;2730;51.512;7.504;2023-02-22T13:38:48;15.80;99.90
5415;DHT22;2730;51.512;7.504;2023-02-22T13:41:49;15.80;99.90
5415;DHT22;2730;51.512;7.504;2023-02-22T13:44:45;15.80;99.90
5415;DHT22;2730;51.512;7.504;2023-02-22T13:50:35;15.80;99.90
5415;DHT22;2730;51.512;7.504;2023-02-22T13:53:09;15.80;99.90
5415;DHT22;2730;51.512;7.504;2023-02-22T13:55:38;15.90;99.90
5415;DHT22;2730;51.512;7.504;2023-02-22T13:58:08;15.90;99.90
5415;DHT22;2730;51.512;7.504;2023-02-22T14:00:43;15.80;99.90
5415;DHT22;2730;51.512;7.504;2023-02-22T14:03:31;15.70;99.90
5415;DHT22;2730;51.512;7.504;2023-02-22T14:06:01;15.70;99.90
5415;DHT22;2730;51.512;7.504;2023-02-22T14:08:44;15.70;99.90
5415;DHT22;2730;51.512;7.504;2023-02-22T14:14:21;15.60;99.90
5415;DHT22;2730;51.512;7.504;2023-02-22T14:17:21;15.50;99.90
5415;DHT22;2730;51.512;7.504;2023-02-22T14:20:19;15.50;99.90
5415;DHT22;2730;51.512;7.504;2023-02-22T14:22:47;15.40;99.90
5415;DHT22;2730;51.512;7.504;2023-02-22T14:25:35;15.30;99.90
5415;DHT22;2730;51.512;7.504;2023-02-22T14:28:05;15.30;99.90
5415;DHT22;2730;51.512;7.504;2023-02-22T14:30:34;15.30;99.90
5415;DHT22;2730;51.512;7.504;2023-02-22T14:36:09;15.00;99.90
5415;DHT22;2730;51.512;7.504;2023-02-22T14:38:36;15.00;99.90
5415;DHT22;2730;51.512;7.504;2023-02-22T14:41:04;14.90;99.90
5415;DHT22;2730;51.512;7.504;2023-02-22T14:43:35;14.90;99.90
5415;DHT22;2730;51.512;7.504;2023-02-22T14:46:04;14.80;99.90
5415;DHT22;2730;51.512;7.504;2023-02-22T14:48:36;14.90;99.90
5415;DHT22;2730;51.512;7.504;2023-02-22T14:51:07;14.80;99.90
5415;DHT22;2730;51.512;7.504;2023-02-22T14:53:40;14.80;99.90
5415;DHT22;2730;51.512;7.504;2023-02-22T14:56:14;14.70;99.90
5415;DHT22;2730;51.512;7.504;2023-02-22T14:58:48;14.70;99.90
5415;DHT22;2730;51.512;7.504;2023-02-22T15:01:26;14.70;99.90
5415;DHT22;2730;51.512;7.504;2023-02-22T15:03:56;14.60;99.90
5415;DHT22;2730;51.512;7.504;2023-02-22T15:06:25;14.60;99.90
5415;DHT22;2730;51.512;7.504;2023-02-22T15:09:06;14.60;99.90
5415;DHT22;2730;51.512;7.504;2023-02-22T15:11:33;14.60;99.90
5415;DHT22;2730;51.512;7.504;2023-02-22T15:14:01;14.60;99.90
5415;DHT22;2730;51.512;7.504;2023-02-22T15:16:30;14.60;99.90
5415;DHT22;2730;51.512;7.504;2023-02-22T15:19:03;14.50;99.90
5415;DHT22;2730;51.512;7.504;2023-02-22T15:21:33;14.50;99.90
5415;DHT22;2730;51.512;7.504;2023-02-22T15:24:02;14.50;99.90
5415;DHT22;2730;51.512;7.504;2023-02-22T15:26:34;14.50;99.90
5415;DHT22;2730;51.512;7.504;2023-02-22T15:29:07;14.50;99.90
5415;DHT22;2730;51.512;7.504;2023-02-22T15:31:36;14.70;99.90
5415;DHT22;2730;51.512;7.504;2023-02-22T15:34:17;14.70;99.90
5415;DHT22;2730;51.512;7.504;2023-02-22T15:36:47;14.70;99.90
5415;DHT22;2730;51.512;7.504;2023-02-22T15:39:20;14.70;99.90
5415;DHT22;2730;51.512;7.504;2023-02-22T15:42:00;14.60;99.90
5415;DHT22;2730;51.512;7.504;2023-02-22T15:44:27;14.70;99.90
5415;DHT22;2730;51.512;7.504;2023-02-22T15:46:55;14.50;99.90
5415;DHT22;2730;51.512;7.504;2023-02-22T15:49:24;14.50;99.90
5415;DHT22;2730;51.512;7.504;2023-02-22T15:52:06;14.40;99.90
5415;DHT22;2730;51.512;7.504;2023-02-22T15:54:40;14.50;99.90
5415;DHT22;2730;51.512;7.504;2023-02-22T15:57:08;14.40;99.90
5415;DHT22;2730;51.512;7.504;2023-02-22T15:59:41;14.40;99.90
5415;DHT22;2730;51.512;7.504;2023-02-22T16:02:19;14.30;99.90
5415;DHT22;2730;51.512;7.504;2023-02-22T16:04:56;14.20;99.90
5415;DHT22;2730;51.512;7.504;2023-02-22T16:07:23;14.20;99.90
5415;DHT22;2730;51.512;7.504;2023-02-22T16:09:51;14.10;99.90
5415;DHT22;2730;51.512;7.504;2023-02-22T16:12:27;14.10;99.90
5415;DHT22;2730;51.512;7.504;2023-02-22T16:14:53;13.90;99.90
5415;DHT22;2730;51.512;7.504;2023-02-22T16:17:27;13.90;99.90
5415;DHT22;2730;51.512;7.504;2023-02-22T16:19:57;13.90;99.90
5415;DHT22;2730;51.512;7.504;2023-02-22T16:22:27;13.80;99.90
5415;DHT22;2730;51.512;7.504;2023-02-22T16:25:13;13.70;99.90
5415;DHT22;2730;51.512;7.504;2023-02-22T16:27:42;13.70;99.90
5415;DHT22;2730;51.512;7.504;2023-02-22T16:30:22;13.60;99.90
5415;DHT22;2730;51.512;7.504;2023-02-22T16:32:50;13.50;99.90
5415;DHT22;2730;51.512;7.504;2023-02-22T16:35:19;13.40;99.90
5415;DHT22;2730;51.512;7.504;2023-02-22T16:37:47;13.20;99.90
5415;DHT22;2730;51.512;7.504;2023-02-22T16:40:20;13.00;99.90
5415;DHT22;2730;51.512;7.504;2023-02-22T16:42:48;13.00;99.90
5415;DHT22;2730;51.512;7.504;2023-02-22T16:45:16;12.90;99.90
5415;DHT22;2730;51.512;7.504;2023-02-22T16:47:43;12.80;99.90
5415;DHT22;2730;51.512;7.504;2023-02-22T16:50:10;12.80;99.90
5415;DHT22;2730;51.512;7.504;2023-02-22T16:52:40;12.70;99.90